createdAt,value
2019-02-10T00:00:01.756Z,76.97
2019-02-10T00:01:01.744Z,76.97
2019-02-10T00:02:01.763Z,76.66
2019-02-10T00:03:01.735Z,76.59
2019-02-10T00:04:01.710Z,76.97
2019-02-10T00:05:01.722Z,77.31
2019-02-10T00:06:01.692Z,77.21
2019-02-10T00:07:01.709Z,77.21
2019-02-10T00:08:01.669Z,77.31
2019-02-10T00:09:01.666Z,77.72
2019-02-10T00:10:01.640Z,77.62
2019-02-10T00:11:01.725Z,77.83
2019-02-10T00:12:01.635Z,77.62
2019-02-10T00:13:01.636Z,77.62
2019-02-10T00:14:01.615Z,77.42
2019-02-10T00:15:01.622Z,77.42
2019-02-10T00:16:01.575Z,77.42
2019-02-10T00:17:01.569Z,77.42
2019-02-10T00:18:01.576Z,77.83
2019-02-10T00:19:01.549Z,77.51
2019-02-10T00:20:01.538Z,77.51
2019-02-10T00:21:01.524Z,78.07
2019-02-10T00:22:01.510Z,78.17
2019-02-10T00:23:01.530Z,79.10
2019-02-10T00:24:01.491Z,79.00
2019-02-10T00:25:01.486Z,78.79
2019-02-10T00:26:01.467Z,78.79
2019-02-10T00:27:01.460Z,79.00
2019-02-10T00:28:01.470Z,79.00
2019-02-10T00:29:01.443Z,79.00
2019-02-10T00:30:01.443Z,78.69
2019-02-10T00:31:01.426Z,78.89
2019-02-10T00:32:01.407Z,78.69
2019-02-10T00:33:01.493Z,79.00
2019-02-10T00:34:01.378Z,79.00
2019-02-10T00:35:01.370Z,78.79
2019-02-10T00:36:01.367Z,78.89
2019-02-10T00:37:01.372Z,79.14
2019-02-10T00:38:01.346Z,79.00
2019-02-10T00:39:01.330Z,79.10
2019-02-10T00:40:01.315Z,78.93
2019-02-10T00:41:01.316Z,79.20
2019-02-10T00:42:01.291Z,78.07
2019-02-10T00:43:01.297Z,78.89
2019-02-10T00:44:01.263Z,78.83
2019-02-10T00:45:01.259Z,79.03
2019-02-10T00:46:01.242Z,79.03
2019-02-10T00:47:01.242Z,78.52
2019-02-10T00:48:01.243Z,78.62
2019-02-10T00:49:01.221Z,79.03
2019-02-10T00:50:01.203Z,78.72
2019-02-10T00:51:01.201Z,78.62
2019-02-10T00:52:01.188Z,78.62
2019-02-10T00:53:01.189Z,78.93
2019-02-10T00:54:01.152Z,78.83
2019-02-10T00:55:01.273Z,79.03
2019-02-10T00:56:01.145Z,78.83
2019-02-10T00:57:01.129Z,79.24
2019-02-10T00:58:01.138Z,79.55
2019-02-10T00:59:01.124Z,79.34
2019-02-10T01:00:01.105Z,79.03
2019-02-10T01:01:01.080Z,78.83
2019-02-10T01:02:01.077Z,79.03
2019-02-10T01:03:01.073Z,78.83
2019-02-10T01:04:01.053Z,79.14
2019-02-10T01:05:01.044Z,78.31
2019-02-10T01:06:01.028Z,78.83
2019-02-10T01:07:01.025Z,79.17
2019-02-10T01:08:01.024Z,79.58
2019-02-10T01:09:00.998Z,79.24
2019-02-10T01:10:00.980Z,79.48
2019-02-10T01:11:00.972Z,79.69
2019-02-10T01:12:00.987Z,79.58
2019-02-10T01:13:00.979Z,79.79
2019-02-10T01:14:00.937Z,79.79
2019-02-10T01:15:00.934Z,79.79
2019-02-10T01:16:00.914Z,80.10
2019-02-10T01:17:00.906Z,80.34
2019-02-10T01:18:00.934Z,80.34
2019-02-10T01:19:00.886Z,80.65
2019-02-10T01:20:00.867Z,80.76
2019-02-10T01:21:00.865Z,81.17
2019-02-10T01:22:00.853Z,81.07
2019-02-10T01:23:00.835Z,80.76
2019-02-10T01:24:00.840Z,81.07
2019-02-10T01:25:00.818Z,80.86
2019-02-10T01:26:00.799Z,81.17
2019-02-10T01:27:00.793Z,80.34
2019-02-10T01:28:00.794Z,80.30
2019-02-10T01:29:00.801Z,80.44
2019-02-10T01:30:00.765Z,81.07
2019-02-10T01:31:00.760Z,81.17
2019-02-10T01:32:00.742Z,80.24
2019-02-10T01:33:00.733Z,80.20
2019-02-10T01:34:00.769Z,80.30
2019-02-10T01:35:00.726Z,80.30
2019-02-10T01:36:00.687Z,81.17
2019-02-10T01:37:00.688Z,81.37
2019-02-10T01:38:00.676Z,81.17
2019-02-10T01:39:00.725Z,81.27
2019-02-10T01:40:00.663Z,81.27
2019-02-10T01:41:00.721Z,81.17
2019-02-10T01:42:00.633Z,81.48
2019-02-10T01:43:00.730Z,81.99
2019-02-10T01:44:00.618Z,81.93
2019-02-10T01:45:00.644Z,82.34
2019-02-10T01:46:00.587Z,81.79
2019-02-10T01:47:00.657Z,81.89
2019-02-10T01:48:00.566Z,81.89
2019-02-10T01:49:00.595Z,82.03
2019-02-10T01:50:00.532Z,82.24
2019-02-10T01:51:00.569Z,82.34
2019-02-10T01:52:00.529Z,82.45
2019-02-10T01:53:00.587Z,82.24
2019-02-10T01:54:00.508Z,82.45
2019-02-10T01:55:00.498Z,82.24
2019-02-10T01:56:00.478Z,82.34
2019-02-10T01:57:00.510Z,82.24
2019-02-10T01:58:00.462Z,82.55
2019-02-10T01:59:00.562Z,82.45
2019-02-10T02:00:00.435Z,81.79
2019-02-10T02:01:00.434Z,82.20
2019-02-10T02:02:00.403Z,82.03
2019-02-10T02:03:00.449Z,82.03
2019-02-10T02:04:00.412Z,81.72
2019-02-10T02:05:07.352Z,82.14
2019-02-10T02:06:00.361Z,81.79
2019-02-10T02:07:01.395Z,81.89
2019-02-10T02:08:00.333Z,81.58
2019-02-10T02:09:00.330Z,82.10
2019-02-10T02:10:00.346Z,82.14
2019-02-10T02:11:01.324Z,81.99
2019-02-10T02:12:00.288Z,81.99
2019-02-10T02:13:00.315Z,81.93
2019-02-10T02:14:00.270Z,82.03
2019-02-10T02:15:00.355Z,81.99
2019-02-10T02:16:00.250Z,82.10
2019-02-10T02:17:00.342Z,82.10
2019-02-10T02:18:00.228Z,81.89
2019-02-10T02:19:00.248Z,81.48
2019-02-10T02:20:00.235Z,81.48
2019-02-10T02:21:00.267Z,81.37
2019-02-10T02:22:00.177Z,81.17
2019-02-10T02:23:00.277Z,81.27
2019-02-10T02:24:00.165Z,81.27
2019-02-10T02:25:00.283Z,80.96
2019-02-10T02:26:00.178Z,81.17
2019-02-10T02:27:00.200Z,81.58
2019-02-10T02:28:00.116Z,81.48
2019-02-10T02:29:00.140Z,81.07
2019-02-10T02:30:00.233Z,81.37
2019-02-10T02:31:00.126Z,81.48
2019-02-10T02:32:00.074Z,81.68
2019-02-10T02:33:00.143Z,81.58
2019-02-10T02:34:00.050Z,81.58
2019-02-10T02:35:00.077Z,81.48
2019-02-10T02:36:00.022Z,81.37
2019-02-10T02:37:07.663Z,81.48
2019-02-10T02:38:00.997Z,81.48
2019-02-10T02:39:00.081Z,80.76
2019-02-10T02:39:59.994Z,81.27
2019-02-10T02:40:59.998Z,81.65
2019-02-10T02:41:59.958Z,81.44
2019-02-10T02:43:00.004Z,82.10
2019-02-10T02:43:59.933Z,81.89
2019-02-10T02:45:00.042Z,82.20
2019-02-10T02:45:59.910Z,81.89
2019-02-10T02:46:59.934Z,81.44
2019-02-10T02:47:59.890Z,81.44
2019-02-10T02:48:59.941Z,81.75
2019-02-10T02:49:59.889Z,81.99
2019-02-10T02:51:06.833Z,82.10
2019-02-10T02:51:59.861Z,81.99
2019-02-10T02:53:00.899Z,81.99
2019-02-10T02:53:59.827Z,81.75
2019-02-10T02:55:01.884Z,81.75
2019-02-10T02:55:59.805Z,82.26
2019-02-10T02:57:00.816Z,81.68
2019-02-10T02:57:59.797Z,82.10
2019-02-10T02:58:59.807Z,82.16
2019-02-10T02:59:59.780Z,81.96
2019-02-10T03:00:59.824Z,81.85
2019-02-10T03:01:59.733Z,81.89
2019-02-10T03:02:59.835Z,81.85
2019-02-10T03:03:59.749Z,82.10
2019-02-10T03:04:59.769Z,82.30
2019-02-10T03:05:59.697Z,82.06
2019-02-10T03:06:59.763Z,82.10
2019-02-10T03:07:59.678Z,81.58
2019-02-10T03:08:59.668Z,82.20
2019-02-10T03:09:59.651Z,81.48
2019-02-10T03:10:59.708Z,82.10
2019-02-10T03:11:59.638Z,81.89
2019-02-10T03:12:59.703Z,81.99
2019-02-10T03:13:59.600Z,81.89
2019-02-10T03:14:59.616Z,81.85
2019-02-10T03:15:59.591Z,81.96
2019-02-10T03:16:59.624Z,81.96
2019-02-10T03:17:59.584Z,82.06
2019-02-10T03:18:59.639Z,81.96
2019-02-10T03:19:59.582Z,81.96
2019-02-10T03:20:59.578Z,81.96
2019-02-10T03:21:59.528Z,81.85
2019-02-10T03:22:59.565Z,81.85
2019-02-10T03:23:59.488Z,81.75
2019-02-10T03:24:59.577Z,81.96
2019-02-10T03:25:59.491Z,81.85
2019-02-10T03:26:59.490Z,82.06
2019-02-10T03:27:59.457Z,81.96
2019-02-10T03:28:59.499Z,81.85
2019-02-10T03:29:59.427Z,81.65
2019-02-10T03:30:59.447Z,82.06
2019-02-10T03:31:59.402Z,81.75
2019-02-10T03:32:59.427Z,82.06
2019-02-10T03:33:59.386Z,82.26
2019-02-10T03:35:01.490Z,82.23
2019-02-10T03:35:59.384Z,82.37
2019-02-10T03:37:01.399Z,82.78
2019-02-10T03:37:59.338Z,82.98
2019-02-10T03:38:59.362Z,83.47
2019-02-10T03:39:59.319Z,84.74
2019-02-10T03:41:01.362Z,84.74
2019-02-10T03:41:59.293Z,85.50
2019-02-10T03:43:00.318Z,85.67
2019-02-10T03:43:59.267Z,86.02
2019-02-10T03:44:59.302Z,86.32
2019-02-10T03:45:59.263Z,86.84
2019-02-10T03:46:59.348Z,87.46
2019-02-10T03:47:59.222Z,87.87
2019-02-10T03:48:59.233Z,87.77
2019-02-10T03:49:59.206Z,87.87
2019-02-10T03:50:59.282Z,88.18
2019-02-10T03:51:59.191Z,87.77
2019-02-10T03:52:59.255Z,88.18
2019-02-10T03:53:59.155Z,87.77
2019-02-10T03:54:59.173Z,87.77
2019-02-10T03:55:59.159Z,87.83
2019-02-10T03:56:59.200Z,87.46
2019-02-10T03:57:59.127Z,87.77
2019-02-10T03:58:59.191Z,87.87
2019-02-10T03:59:59.105Z,87.77
2019-02-10T04:00:59.144Z,87.66
2019-02-10T04:01:59.073Z,87.87
2019-02-10T04:02:59.123Z,87.66
2019-02-10T04:03:59.054Z,87.66
2019-02-10T04:04:59.147Z,87.77
2019-02-10T04:05:59.050Z,87.87
2019-02-10T04:06:59.047Z,87.77
2019-02-10T04:07:59.028Z,87.46
2019-02-10T04:08:59.063Z,87.15
2019-02-10T04:09:58.986Z,86.84
2019-02-10T04:10:59.086Z,86.84
2019-02-10T04:11:59.016Z,86.53
2019-02-10T04:12:58.996Z,86.32
2019-02-10T04:13:58.950Z,86.32
2019-02-10T04:14:59.002Z,86.84
2019-02-10T04:15:58.922Z,86.94
2019-02-10T04:16:58.936Z,87.26
2019-02-10T04:17:58.890Z,87.66
2019-02-10T04:18:58.926Z,87.77
2019-02-10T04:19:58.869Z,87.66
2019-02-10T04:21:05.840Z,87.56
2019-02-10T04:21:58.866Z,87.87
2019-02-10T04:23:00.911Z,87.87
2019-02-10T04:23:58.825Z,87.77
2019-02-10T04:24:58.861Z,87.66
2019-02-10T04:25:58.812Z,87.87
2019-02-10T04:26:59.832Z,87.87
2019-02-10T04:27:58.790Z,87.66
2019-02-10T04:28:58.804Z,87.66
2019-02-10T04:29:58.757Z,88.08
2019-02-10T04:30:58.797Z,87.87
2019-02-10T04:31:58.782Z,88.18
2019-02-10T04:32:58.819Z,88.29
2019-02-10T04:33:58.717Z,88.39
2019-02-10T04:34:58.730Z,88.49
2019-02-10T04:35:58.702Z,88.29
2019-02-10T04:36:58.776Z,87.87
2019-02-10T04:37:58.677Z,88.08
2019-02-10T04:38:58.750Z,88.70
2019-02-10T04:39:58.655Z,88.90
2019-02-10T04:40:58.694Z,89.01
2019-02-10T04:41:58.635Z,89.25
2019-02-10T04:42:58.703Z,89.67
2019-02-10T04:43:58.608Z,89.36
2019-02-10T04:44:58.695Z,90.28
2019-02-10T04:45:58.582Z,90.19
2019-02-10T04:46:58.634Z,90.39
2019-02-10T04:47:58.577Z,90.19
2019-02-10T04:48:58.626Z,90.59
2019-02-10T04:49:58.534Z,90.39
2019-02-10T04:50:58.631Z,90.59
2019-02-10T04:51:58.560Z,90.08
2019-02-10T04:52:58.554Z,90.80
2019-02-10T04:53:58.491Z,91.32
2019-02-10T04:54:58.554Z,91.63
2019-02-10T04:55:58.472Z,90.59
2019-02-10T04:56:58.567Z,91.01
2019-02-10T04:57:58.459Z,92.25
2019-02-10T04:58:58.540Z,92.35
2019-02-10T04:59:58.436Z,92.19
2019-02-10T05:00:58.498Z,92.19
2019-02-10T05:01:58.410Z,92.08
2019-02-10T05:02:58.472Z,91.88
2019-02-10T05:03:58.386Z,92.29
2019-02-10T05:05:06.367Z,92.91
2019-02-10T05:05:58.361Z,93.53
2019-02-10T05:07:06.344Z,93.43
2019-02-10T05:07:58.352Z,93.22
2019-02-10T05:08:58.348Z,93.32
2019-02-10T05:09:58.329Z,93.12
2019-02-10T05:10:58.365Z,93.43
2019-02-10T05:11:58.291Z,93.53
2019-02-10T05:12:59.329Z,92.91
2019-02-10T05:13:58.272Z,93.12
2019-02-10T05:14:58.289Z,93.22
2019-02-10T05:15:58.248Z,93.43
2019-02-10T05:16:58.304Z,93.37
2019-02-10T05:17:58.255Z,93.63
2019-02-10T05:18:58.313Z,93.47
2019-02-10T05:19:58.213Z,93.53
2019-02-10T05:20:58.227Z,93.84
2019-02-10T05:21:58.192Z,93.57
2019-02-10T05:22:58.284Z,94.15
2019-02-10T05:24:03.502Z,93.98
2019-02-10T05:24:59.170Z,94.09
2019-02-10T05:25:58.145Z,94.19
2019-02-10T05:26:58.157Z,94.40
2019-02-10T05:27:58.146Z,94.71
2019-02-10T05:28:58.175Z,94.19
2019-02-10T05:29:58.114Z,94.71
2019-02-10T05:30:58.218Z,94.50
2019-02-10T05:31:58.076Z,94.60
2019-02-10T05:32:58.132Z,94.71
2019-02-10T05:33:58.064Z,94.50
2019-02-10T05:34:58.114Z,94.81
2019-02-10T05:35:58.028Z,94.71
2019-02-10T05:36:58.134Z,94.71
2019-02-10T05:38:03.762Z,94.19
2019-02-10T05:38:59.125Z,94.40
2019-02-10T05:39:57.993Z,94.19
2019-02-10T05:40:58.052Z,94.60
2019-02-10T05:41:57.966Z,94.19
2019-02-10T05:42:58.069Z,94.50
2019-02-10T05:43:57.959Z,93.68
2019-02-10T05:44:57.999Z,93.57
2019-02-10T05:45:57.924Z,93.26
2019-02-10T05:46:57.991Z,93.57
2019-02-10T05:47:57.901Z,93.88
2019-02-10T05:48:57.953Z,94.19
2019-02-10T05:49:57.885Z,93.98
2019-02-10T05:51:05.846Z,93.26
2019-02-10T05:51:57.865Z,94.29
2019-02-10T05:53:05.846Z,94.29
2019-02-10T05:53:57.857Z,94.50
2019-02-10T05:54:57.849Z,94.71
2019-02-10T05:55:57.840Z,94.44
2019-02-10T05:56:57.857Z,94.85
2019-02-10T05:57:57.811Z,94.75
2019-02-10T05:58:57.921Z,95.53
2019-02-10T05:59:57.796Z,95.06
2019-02-10T06:00:57.789Z,94.71
2019-02-10T06:01:57.774Z,94.50
2019-02-10T06:02:57.818Z,94.65
2019-02-10T06:03:57.741Z,94.34
2019-02-10T06:04:57.818Z,93.98
2019-02-10T06:05:57.705Z,93.88
2019-02-10T06:06:57.741Z,93.82
2019-02-10T06:07:57.690Z,94.13
2019-02-10T06:08:57.778Z,93.98
2019-02-10T06:09:57.686Z,94.65
2019-02-10T06:10:57.754Z,94.65
2019-02-10T06:11:57.649Z,94.65
2019-02-10T06:12:57.759Z,94.75
2019-02-10T06:13:57.683Z,94.75
2019-02-10T06:14:57.710Z,94.65
2019-02-10T06:15:57.603Z,95.68
2019-02-10T06:16:57.706Z,95.57
2019-02-10T06:17:57.570Z,95.78
2019-02-10T06:18:57.648Z,95.48
2019-02-10T06:19:57.556Z,95.48
2019-02-10T06:20:57.607Z,95.57
2019-02-10T06:21:57.573Z,95.27
2019-02-10T06:22:57.621Z,95.37
2019-02-10T06:23:57.516Z,95.31
2019-02-10T06:24:57.532Z,95.83
2019-02-10T06:25:57.486Z,96.20
2019-02-10T06:26:57.571Z,96.09
2019-02-10T06:27:57.462Z,96.45
2019-02-10T06:28:57.535Z,96.76
2019-02-10T06:29:57.443Z,96.86
2019-02-10T06:30:57.471Z,96.76
2019-02-10T06:31:57.443Z,96.97
2019-02-10T06:32:57.508Z,97.07
2019-02-10T06:33:57.397Z,97.49
2019-02-10T06:35:00.938Z,97.17
2019-02-10T06:35:57.378Z,97.38
2019-02-10T06:37:06.354Z,96.97
2019-02-10T06:37:57.378Z,96.86
2019-02-10T06:38:59.372Z,97.28
2019-02-10T06:39:57.350Z,97.07
2019-02-10T06:40:57.334Z,97.38
2019-02-10T06:41:57.310Z,97.49
2019-02-10T06:42:57.376Z,97.17
2019-02-10T06:43:57.284Z,97.07
2019-02-10T06:44:57.385Z,97.38
2019-02-10T06:45:57.267Z,97.69
2019-02-10T06:46:57.273Z,96.86
2019-02-10T06:47:57.830Z,97.89
2019-02-10T06:48:57.311Z,97.17
2019-02-10T06:49:57.232Z,97.59
2019-02-10T06:50:57.302Z,97.38
2019-02-10T06:51:57.197Z,96.97
2019-02-10T06:52:57.212Z,97.49
2019-02-10T06:53:57.178Z,97.07
2019-02-10T06:54:57.269Z,96.97
2019-02-10T06:55:57.152Z,97.38
2019-02-10T06:56:57.239Z,97.59
2019-02-10T06:57:57.130Z,97.38
2019-02-10T06:58:57.150Z,97.59
2019-02-10T06:59:57.121Z,97.28
2019-02-10T07:00:57.184Z,97.07
2019-02-10T07:01:57.093Z,97.49
2019-02-10T07:02:57.177Z,97.17
2019-02-10T07:03:57.068Z,96.97
2019-02-10T07:04:57.117Z,96.86
2019-02-10T07:05:57.051Z,97.38
2019-02-10T07:06:57.117Z,97.49
2019-02-10T07:07:57.033Z,96.97
2019-02-10T07:08:57.117Z,96.97
2019-02-10T07:09:57.018Z,97.17
2019-02-10T07:10:57.027Z,97.28
2019-02-10T07:11:56.978Z,97.17
2019-02-10T07:12:57.044Z,97.59
2019-02-10T07:13:56.976Z,97.49
2019-02-10T07:14:57.056Z,97.07
2019-02-10T07:15:56.946Z,97.49
2019-02-10T07:16:56.968Z,97.59
2019-02-10T07:17:56.925Z,97.49
2019-02-10T07:18:56.981Z,97.49
2019-02-10T07:19:56.935Z,97.89
2019-02-10T07:21:05.849Z,97.38
2019-02-10T07:21:56.869Z,97.38
2019-02-10T07:23:03.870Z,97.28
2019-02-10T07:23:56.847Z,97.69
2019-02-10T07:24:58.894Z,97.07
2019-02-10T07:25:56.846Z,97.38
2019-02-10T07:26:56.831Z,97.69
2019-02-10T07:27:56.803Z,98.21
2019-02-10T07:28:56.847Z,98.31
2019-02-10T07:29:56.780Z,98.00
2019-02-10T07:30:56.897Z,97.94
2019-02-10T07:31:56.761Z,97.89
2019-02-10T07:32:56.770Z,98.10
2019-02-10T07:33:58.524Z,98.72
2019-02-10T07:34:56.783Z,98.62
2019-02-10T07:35:56.732Z,98.52
2019-02-10T07:36:56.819Z,98.52
2019-02-10T07:37:56.696Z,98.15
2019-02-10T07:38:56.708Z,98.31
2019-02-10T07:39:56.673Z,98.31
2019-02-10T07:40:56.750Z,98.62
2019-02-10T07:41:56.653Z,98.72
2019-02-10T07:42:56.780Z,98.66
2019-02-10T07:43:56.629Z,98.62
2019-02-10T07:44:56.651Z,98.62
2019-02-10T07:45:56.618Z,98.56
2019-02-10T07:46:56.664Z,98.72
2019-02-10T07:47:56.584Z,99.04
2019-02-10T07:48:56.702Z,99.14
2019-02-10T07:49:56.560Z,98.83
2019-02-10T07:50:56.617Z,98.72
2019-02-10T07:51:56.540Z,98.52
2019-02-10T07:52:56.602Z,98.62
2019-02-10T07:53:56.524Z,99.04
2019-02-10T07:54:56.640Z,99.14
2019-02-10T07:55:56.509Z,98.93
2019-02-10T07:56:56.524Z,98.93
2019-02-10T07:57:56.473Z,99.04
2019-02-10T07:58:56.539Z,98.83
2019-02-10T07:59:56.469Z,99.04
2019-02-10T08:00:56.592Z,99.14
2019-02-10T08:01:56.429Z,99.14
2019-02-10T08:02:56.464Z,99.04
2019-02-10T08:03:56.410Z,99.34
2019-02-10T08:04:56.476Z,99.55
2019-02-10T08:05:56.392Z,99.04
2019-02-10T08:07:05.443Z,99.14
2019-02-10T08:07:56.367Z,99.44
2019-02-10T08:09:03.365Z,99.24
2019-02-10T08:09:56.349Z,99.04
2019-02-10T08:10:58.361Z,99.55
2019-02-10T08:11:56.361Z,99.65
2019-02-10T08:12:56.326Z,99.51
2019-02-10T08:13:56.326Z,99.76
2019-02-10T08:14:56.349Z,99.61
2019-02-10T08:15:56.278Z,99.65
2019-02-10T08:16:56.382Z,99.09
2019-02-10T08:17:56.281Z,98.99
2019-02-10T08:18:56.269Z,99.09
2019-02-10T08:19:56.231Z,98.88
2019-02-10T08:20:56.295Z,98.88
2019-02-10T08:21:56.222Z,99.40
2019-02-10T08:22:56.296Z,99.40
2019-02-10T08:23:56.215Z,98.99
2019-02-10T08:24:56.212Z,98.78
2019-02-10T08:25:56.171Z,98.22
2019-02-10T08:26:56.246Z,98.32
2019-02-10T08:27:56.147Z,98.32
2019-02-10T08:28:56.239Z,98.22
2019-02-10T08:29:56.147Z,97.91
2019-02-10T08:30:56.143Z,98.01
2019-02-10T08:31:56.117Z,97.96
2019-02-10T08:32:56.156Z,98.37
2019-02-10T08:33:57.231Z,98.01
2019-02-10T08:34:56.173Z,98.01
2019-02-10T08:35:56.073Z,98.01
2019-02-10T08:36:56.108Z,98.22
2019-02-10T08:37:56.055Z,98.01
2019-02-10T08:38:56.096Z,98.11
2019-02-10T08:39:56.018Z,98.11
2019-02-10T08:40:56.109Z,98.49
2019-02-10T08:41:56.047Z,98.58
2019-02-10T08:42:56.037Z,98.69
2019-02-10T08:43:55.973Z,98.07
2019-02-10T08:44:56.048Z,97.86
2019-02-10T08:45:55.952Z,98.07
2019-02-10T08:46:56.063Z,98.18
2019-02-10T08:47:55.975Z,98.02
2019-02-10T08:48:55.987Z,98.28
2019-02-10T08:49:55.906Z,97.82
2019-02-10T08:50:55.972Z,97.61
2019-02-10T08:51:55.889Z,98.13
2019-02-10T08:52:59.404Z,97.41
2019-02-10T08:53:55.881Z,97.82
2019-02-10T08:55:02.899Z,97.61
2019-02-10T08:55:55.841Z,97.72
2019-02-10T08:56:57.858Z,97.61
2019-02-10T08:57:55.833Z,97.41
2019-02-10T08:58:55.823Z,97.20
2019-02-10T08:59:55.796Z,97.61
2019-02-10T09:00:55.855Z,97.82
2019-02-10T09:01:55.780Z,97.72
2019-02-10T09:02:55.789Z,97.76
2019-02-10T09:03:55.781Z,97.86
2019-02-10T09:04:55.771Z,98.49
2019-02-10T09:05:55.733Z,98.33
2019-02-10T09:06:55.804Z,98.11
2019-02-10T09:07:55.721Z,97.86
2019-02-10T09:09:02.471Z,97.97
2019-02-10T09:09:56.691Z,98.69
2019-02-10T09:10:55.733Z,98.38
2019-02-10T09:11:55.665Z,98.49
2019-02-10T09:12:55.771Z,98.53
2019-02-10T09:13:55.640Z,98.49
2019-02-10T09:14:55.743Z,98.53
2019-02-10T09:15:55.619Z,98.49
2019-02-10T09:16:55.646Z,98.79
2019-02-10T09:17:55.611Z,98.49
2019-02-10T09:18:55.676Z,99.10
2019-02-10T09:19:55.581Z,98.49
2019-02-10T09:20:55.691Z,98.79
2019-02-10T09:21:55.557Z,98.69
2019-02-10T09:22:55.609Z,99.21
2019-02-10T09:23:55.536Z,98.38
2019-02-10T09:24:55.656Z,99.00
2019-02-10T09:25:55.518Z,98.90
2019-02-10T09:26:55.613Z,99.00
2019-02-10T09:27:55.502Z,98.90
2019-02-10T09:28:56.552Z,98.90
2019-02-10T09:29:55.470Z,98.90
2019-02-10T09:30:55.594Z,98.69
2019-02-10T09:31:55.456Z,98.69
2019-02-10T09:32:55.471Z,98.49
2019-02-10T09:33:55.420Z,98.49
2019-02-10T09:34:55.466Z,98.44
2019-02-10T09:35:55.397Z,98.49
2019-02-10T09:36:55.507Z,98.54
2019-02-10T09:37:55.424Z,98.79
2019-02-10T09:38:55.390Z,98.58
2019-02-10T09:39:55.355Z,98.65
2019-02-10T09:40:55.411Z,98.54
2019-02-10T09:41:55.335Z,99.26
2019-02-10T09:42:55.455Z,98.75
2019-02-10T09:43:55.328Z,99.26
2019-02-10T09:44:55.324Z,98.85
2019-02-10T09:45:55.290Z,98.54
2019-02-10T09:46:55.344Z,99.22
2019-02-10T09:47:55.275Z,98.70
2019-02-10T09:48:55.409Z,98.91
2019-02-10T09:49:55.253Z,98.70
2019-02-10T09:50:55.268Z,98.70
2019-02-10T09:51:55.251Z,98.70
2019-02-10T09:52:55.279Z,98.70
2019-02-10T09:53:55.218Z,98.45
2019-02-10T09:54:55.307Z,98.35
2019-02-10T09:55:55.181Z,97.83
2019-02-10T09:56:55.173Z,98.24
2019-02-10T09:57:55.156Z,98.41
2019-02-10T09:58:55.263Z,98.24
2019-02-10T09:59:55.136Z,97.99
2019-02-10T10:00:56.169Z,98.20
2019-02-10T10:01:55.113Z,97.78
2019-02-10T10:02:56.183Z,98.30
2019-02-10T10:03:55.107Z,98.41
2019-02-10T10:04:55.158Z,98.20
2019-02-10T10:05:55.071Z,97.89
2019-02-10T10:06:56.128Z,98.10
2019-02-10T10:07:55.048Z,98.50
2019-02-10T10:08:55.106Z,98.36
2019-02-10T10:09:55.024Z,98.30
2019-02-10T10:10:55.116Z,98.10
2019-02-10T10:11:55.007Z,97.99
2019-02-10T10:12:55.153Z,97.95
2019-02-10T10:13:54.982Z,98.05
2019-02-10T10:14:55.045Z,97.85
2019-02-10T10:15:54.975Z,97.74
2019-02-10T10:16:55.033Z,97.95
2019-02-10T10:17:54.940Z,97.99
2019-02-10T10:18:54.969Z,98.25
2019-02-10T10:19:55.055Z,98.15
2019-02-10T10:20:54.953Z,98.15
2019-02-10T10:21:54.895Z,98.57
2019-02-10T10:22:55.991Z,98.92
2019-02-10T10:23:54.871Z,98.57
2019-02-10T10:24:54.950Z,98.67
2019-02-10T10:25:54.845Z,98.77
2019-02-10T10:26:56.969Z,99.13
2019-02-10T10:27:54.837Z,99.29
2019-02-10T10:28:55.834Z,99.39
2019-02-10T10:29:54.840Z,98.97
2019-02-10T10:30:54.844Z,98.97
2019-02-10T10:31:54.780Z,99.29
2019-02-10T10:32:54.779Z,99.39
2019-02-10T10:33:54.769Z,99.39
2019-02-10T10:34:54.769Z,99.60
2019-02-10T10:35:54.739Z,99.60
2019-02-10T10:36:54.758Z,99.18
2019-02-10T10:37:54.712Z,99.80
2019-02-10T10:38:54.706Z,99.70
2019-02-10T10:39:54.705Z,99.49
2019-02-10T10:40:54.686Z,99.14
2019-02-10T10:41:54.671Z,99.44
2019-02-10T10:42:54.707Z,99.24
2019-02-10T10:43:54.646Z,99.24
2019-02-10T10:44:54.791Z,99.55
2019-02-10T10:45:54.627Z,99.55
2019-02-10T10:46:54.619Z,99.55
2019-02-10T10:47:54.609Z,99.34
2019-02-10T10:48:54.642Z,99.24
2019-02-10T10:49:54.595Z,99.30
2019-02-10T10:50:54.580Z,99.30
2019-02-10T10:51:54.559Z,99.24
2019-02-10T10:52:54.585Z,98.88
2019-02-10T10:53:54.539Z,98.58
2019-02-10T10:54:54.588Z,98.58
2019-02-10T10:55:54.513Z,98.47
2019-02-10T10:56:54.592Z,98.37
2019-02-10T10:57:54.508Z,98.27
2019-02-10T10:58:54.540Z,98.37
2019-02-10T10:59:54.487Z,98.43
2019-02-10T11:00:54.512Z,98.12
2019-02-10T11:01:54.449Z,98.63
2019-02-10T11:02:54.444Z,98.74
2019-02-10T11:03:54.430Z,98.53
2019-02-10T11:04:54.441Z,98.47
2019-02-10T11:05:54.409Z,98.63
2019-02-10T11:06:54.435Z,98.43
2019-02-10T11:07:54.381Z,98.63
2019-02-10T11:08:54.383Z,98.43
2019-02-10T11:09:54.380Z,98.43
2019-02-10T11:10:54.351Z,98.59
2019-02-10T11:11:54.356Z,99.15
2019-02-10T11:12:55.419Z,98.84
2019-02-10T11:13:54.319Z,98.79
2019-02-10T11:14:54.347Z,98.84
2019-02-10T11:15:54.291Z,99.72
2019-02-10T11:16:54.288Z,99.82
2019-02-10T11:17:54.303Z,99.41
2019-02-10T11:18:54.280Z,99.31
2019-02-10T11:19:54.261Z,99.72
2019-02-10T11:20:54.273Z,99.00
2019-02-10T11:21:54.233Z,99.21
2019-02-10T11:22:55.282Z,99.62
2019-02-10T11:23:54.232Z,99.82
2019-02-10T11:24:54.210Z,99.41
2019-02-10T11:25:54.203Z,99.10
2019-02-10T11:26:54.593Z,99.10
2019-02-10T11:27:54.160Z,98.90
2019-02-10T11:28:55.225Z,99.10
2019-02-10T11:29:54.184Z,98.75
2019-02-10T11:30:54.164Z,99.00
2019-02-10T11:31:54.119Z,98.44
2019-02-10T11:32:54.117Z,98.33
2019-02-10T11:33:54.096Z,98.33
2019-02-10T11:34:54.091Z,98.03
2019-02-10T11:35:54.118Z,98.24
2019-02-10T11:36:54.070Z,97.52
2019-02-10T11:37:54.051Z,97.62
2019-02-10T11:38:54.068Z,97.92
2019-02-10T11:39:54.029Z,97.72
2019-02-10T11:40:54.110Z,97.62
2019-02-10T11:41:54.024Z,97.20
2019-02-10T11:42:54.005Z,97.16
2019-02-10T11:43:53.988Z,96.95
2019-02-10T11:44:53.979Z,96.75
2019-02-10T11:45:53.982Z,97.27
2019-02-10T11:46:55.033Z,97.06
2019-02-10T11:47:53.970Z,96.65
2019-02-10T11:48:53.949Z,96.95
2019-02-10T11:49:53.929Z,96.34
2019-02-10T11:50:53.941Z,96.55
2019-02-10T11:51:53.904Z,96.75
2019-02-10T11:52:53.894Z,96.55
2019-02-10T11:53:53.918Z,96.65
2019-02-10T11:54:53.901Z,96.34
2019-02-10T11:55:53.873Z,95.37
2019-02-10T11:56:53.856Z,94.96
2019-02-10T11:57:53.837Z,94.96
2019-02-10T11:58:53.831Z,95.17
2019-02-10T11:59:53.901Z,94.45
2019-02-10T12:00:53.854Z,94.14
2019-02-10T12:01:53.817Z,94.24
2019-02-10T12:02:53.820Z,93.59
2019-02-10T12:03:53.769Z,92.86
2019-02-10T12:04:54.817Z,92.76
2019-02-10T12:05:53.767Z,92.86
2019-02-10T12:06:53.746Z,92.97
2019-02-10T12:07:53.758Z,92.35
2019-02-10T12:08:53.855Z,91.22
2019-02-10T12:09:53.734Z,91.80
2019-02-10T12:10:53.715Z,91.80
2019-02-10T12:11:53.694Z,91.18
2019-02-10T12:12:53.736Z,90.56
2019-02-10T12:13:53.712Z,90.56
2019-02-10T12:14:54.657Z,91.18
2019-02-10T12:15:53.666Z,90.87
2019-02-10T12:16:53.630Z,90.87
2019-02-10T12:17:53.617Z,90.56
2019-02-10T12:18:53.614Z,91.18
2019-02-10T12:19:53.726Z,90.91
2019-02-10T12:20:53.653Z,90.97
2019-02-10T12:21:53.597Z,90.71
2019-02-10T12:22:53.600Z,91.63
2019-02-10T12:23:53.576Z,91.63
2019-02-10T12:24:53.616Z,91.84
2019-02-10T12:25:53.583Z,91.84
2019-02-10T12:26:53.536Z,91.42
2019-02-10T12:27:53.562Z,92.04
2019-02-10T12:28:53.494Z,92.04
2019-02-10T12:29:53.485Z,92.66
2019-02-10T12:30:53.526Z,92.97
2019-02-10T12:31:53.557Z,92.14
2019-02-10T12:32:54.491Z,92.55
2019-02-10T12:33:53.446Z,92.66
2019-02-10T12:34:53.431Z,93.17
2019-02-10T12:35:58.271Z,92.97
2019-02-10T12:36:54.501Z,93.59
2019-02-10T12:37:53.407Z,94.04
2019-02-10T12:38:54.388Z,94.10
2019-02-10T12:39:59.691Z,94.10
2019-02-10T12:40:54.359Z,93.99
2019-02-10T12:41:53.380Z,93.83
2019-02-10T12:42:55.423Z,94.14
2019-02-10T12:43:53.350Z,93.93
2019-02-10T12:44:54.315Z,94.30
2019-02-10T12:45:53.346Z,94.14
2019-02-10T12:46:53.305Z,93.93
2019-02-10T12:47:53.279Z,93.99
2019-02-10T12:48:53.270Z,92.97
2019-02-10T12:49:53.254Z,93.59
2019-02-10T12:50:53.269Z,93.21
2019-02-10T12:51:53.257Z,92.66